Time;durP1;ratioP1;P1;durP2;ratioP2;P2;SDS_P1;SDS_P2;PMS_P1;PMS_P2;Temp;Humidity;BMP_temperature;BMP_pressure;BME280_temperature;BME280_humidity;BME280_pressure;Samples;Min_cycle;Max_cycle;Signal;HPM_P1;HPM_P2
2022/07/23 00:01:23;;;;;;;7.80;5.13;;;19.80;81.60;;;;;;5092239;28;20028;-85
2022/07/23 00:03:49;;;;;;;10.93;5.45;;;19.80;82.00;;;;;;5093905;28;20035;-85
2022/07/23 00:06:16;;;;;;;7.68;5.20;;;19.80;82.30;;;;;;5094737;28;20020;-85
2022/07/23 00:08:42;;;;;;;7.07;5.25;;;19.80;82.40;;;;;;5101563;28;20024;-85
2022/07/23 00:11:08;;;;;;;10.18;5.45;;;19.80;82.30;;;;;;5105989;28;20051;-85
2022/07/23 00:13:34;;;;;;;7.45;5.78;;;19.80;82.70;;;;;;5089241;28;20055;-85
2022/07/23 00:15:59;;;;;;;10.55;5.35;;;19.80;82.70;;;;;;5087258;28;20040;-85
2022/07/23 00:18:27;;;;;;;10.70;5.25;;;19.80;82.80;;;;;;5108389;28;20048;-86
2022/07/23 00:20:53;;;;;;;9.13;5.30;;;19.80;83.30;;;;;;5102738;28;20077;-85
2022/07/23 00:23:19;;;;;;;9.98;6.10;;;19.70;83.40;;;;;;5083277;28;20023;-85
2022/07/23 00:25:45;;;;;;;8.18;5.40;;;19.70;85.00;;;;;;5111164;28;20028;-85
2022/07/23 00:28:11;;;;;;;7.40;5.45;;;19.60;84.10;;;;;;5093985;28;20001;-85
2022/07/23 00:30:37;;;;;;;6.38;5.10;;;19.60;90.60;;;;;;5099681;28;20107;-85
2022/07/23 00:33:07;;;;;;;7.65;5.00;;;19.50;84.50;;;;;;5092853;28;20016;-84
2022/07/23 00:35:40;;;;;;;7.63;5.75;;;19.60;91.60;;;;;;5093118;28;20035;-84
2022/07/23 00:38:06;;;;;;;9.02;6.53;;;19.40;85.00;;;;;;5092806;28;20027;-84
2022/07/23 00:40:33;;;;;;;11.68;6.45;;;19.50;85.10;;;;;;5092118;28;20385;-83
2022/07/23 00:42:59;;;;;;;14.70;6.10;;;19.50;85.00;;;;;;5094460;28;20035;-85
2022/07/23 00:45:26;;;;;;;8.32;6.18;;;19.50;85.00;;;;;;5098228;28;20249;-85
2022/07/23 00:47:52;;;;;;;8.23;5.80;;;19.50;85.20;;;;;;5094896;28;20052;-85
2022/07/23 00:50:18;;;;;;;9.60;6.32;;;19.50;85.20;;;;;;5092885;28;20420;-84
2022/07/23 00:52:44;;;;;;;9.05;5.60;;;19.50;85.40;;;;;;5092653;28;20085;-85
2022/07/23 00:55:11;;;;;;;8.82;6.07;;;19.50;85.80;;;;;;5092026;28;20047;-86
2022/07/23 00:57:38;;;;;;;8.07;6.10;;;19.50;85.80;;;;;;5092872;28;20032;-86
2022/07/23 01:00:06;;;;;;;11.20;6.43;;;19.40;86.00;;;;;;5092576;28;20515;-86
2022/07/23 01:02:32;;;;;;;13.60;7.25;;;19.40;86.30;;;;;;5093041;28;20036;-85
2022/07/23 01:04:58;;;;;;;11.90;6.47;;;19.40;86.50;;;;;;5092513;28;20020;-86
2022/07/23 01:07:24;;;;;;;10.95;6.70;;;19.30;86.60;;;;;;5076191;28;20032;-85
2022/07/23 01:09:51;;;;;;;11.65;7.05;;;19.30;87.10;;;;;;5092863;28;20024;-85
2022/07/23 01:12:18;;;;;;;12.30;7.85;;;19.30;87.30;;;;;;5092291;28;20059;-85
2022/07/23 01:14:44;;;;;;;9.50;6.45;;;19.30;87.60;;;;;;5093907;28;20396;-84
2022/07/23 01:17:10;;;;;;;10.18;7.13;;;19.30;87.80;;;;;;5093918;28;20016;-84
2022/07/23 01:19:35;;;;;;;13.90;7.00;;;19.20;88.20;;;;;;5093218;28;20028;-85
2022/07/23 01:22:04;;;;;;;9.90;6.95;;;19.20;88.50;;;;;;5092193;28;20031;-86
2022/07/23 01:24:30;;;;;;;9.90;6.47;;;19.20;88.60;;;;;;5078045;28;20032;-87
2022/07/23 01:26:56;;;;;;;12.32;6.80;;;19.20;88.80;;;;;;5090938;28;20385;-85
2022/07/23 01:29:22;;;;;;;11.73;7.00;;;19.20;88.80;;;;;;5091745;28;20051;-85
2022/07/23 01:31:48;;;;;;;8.75;5.32;;;19.20;89.00;;;;;;5089517;28;20013;-85
2022/07/23 01:34:14;;;;;;;14.38;6.57;;;19.20;89.10;;;;;;5070804;28;20028;-86
2022/07/23 01:36:40;;;;;;;13.13;7.00;;;19.10;89.30;;;;;;5091911;28;20073;-85
2022/07/23 01:39:07;;;;;;;11.38;7.03;;;19.20;89.80;;;;;;5091770;28;20520;-86
2022/07/23 01:41:33;;;;;;;13.10;7.07;;;19.10;89.90;;;;;;5091679;28;20032;-85
2022/07/23 01:43:59;;;;;;;8.68;6.85;;;19.10;90.00;;;;;;5091095;28;20124;-86
2022/07/23 01:46:26;;;;;;;17.48;7.15;;;19.10;90.10;;;;;;5091766;28;20056;-85
2022/07/23 01:48:51;;;;;;;14.88;7.15;;;19.10;90.20;;;;;;5073865;28;20021;-86
2022/07/23 01:51:20;;;;;;;13.73;7.05;;;19.10;90.30;;;;;;5091680;28;20066;-86
2022/07/23 01:53:45;;;;;;;14.02;6.75;;;19.10;90.30;;;;;;5091512;28;20084;-85
2022/07/23 01:56:11;;;;;;;10.45;7.60;;;19.10;90.40;;;;;;5092058;28;20060;-86
2022/07/23 01:58:37;;;;;;;9.65;5.88;;;19.10;90.40;;;;;;5091390;28;20454;-86
2022/07/23 02:01:03;;;;;;;12.23;7.93;;;19.20;90.50;;;;;;5093532;28;20055;-86
2022/07/23 02:03:29;;;;;;;13.80;7.38;;;19.20;90.50;;;;;;5070665;28;20036;-85
2022/07/23 02:05:54;;;;;;;14.95;7.15;;;19.10;90.70;;;;;;5096707;28;20016;-86
2022/07/23 02:08:20;;;;;;;15.40;8.10;;;19.10;90.80;;;;;;5093527;28;20103;-85
2022/07/23 02:10:47;;;;;;;13.50;7.32;;;19.10;91.00;;;;;;5079240;28;20060;-86
2022/07/23 02:13:13;;;;;;;14.07;6.68;;;19.10;91.10;;;;;;5096410;28;20435;-86
2022/07/23 02:15:38;;;;;;;12.23;8.18;;;19.10;91.10;;;;;;5077639;28;20016;-86
2022/07/23 02:18:04;;;;;;;15.55;8.38;;;19.20;91.10;;;;;;5095574;28;20031;-85
2022/07/23 02:20:30;;;;;;;17.65;8.02;;;19.20;91.00;;;;;;5095392;28;20095;-86
2022/07/23 02:22:56;;;;;;;13.55;8.02;;;19.20;91.00;;;;;;5095247;28;20022;-86
2022/07/23 02:25:22;;;;;;;16.85;8.90;;;19.20;90.90;;;;;;5076881;28;20048;-87
2022/07/23 02:27:48;;;;;;;19.30;8.85;;;19.30;90.80;;;;;;5095805;28;20099;-87
2022/07/23 02:30:13;;;;;;;15.65;7.53;;;19.30;90.80;;;;;;5095250;28;20028;-86
2022/07/23 02:32:39;;;;;;;15.25;8.50;;;19.40;91.00;;;;;;5102170;28;20033;-86
2022/07/23 02:35:06;;;;;;;12.02;7.57;;;19.40;91.10;;;;;;5097787;28;20031;-85
2022/07/23 02:37:32;;;;;;;14.90;8.90;;;19.40;90.70;;;;;;5094237;28;20586;-87
2022/07/23 02:39:57;;;;;;;14.38;8.77;;;19.50;90.60;;;;;;5096105;28;20024;-85
2022/07/23 02:42:23;;;;;;;19.60;8.40;;;19.50;90.60;;;;;;5095223;28;20488;-87
2022/07/23 02:44:50;;;;;;;24.95;9.00;;;19.60;90.60;;;;;;5095095;28;20028;-86
2022/07/23 02:47:16;;;;;;;12.88;7.78;;;19.60;90.50;;;;;;5077710;28;20503;-87
2022/07/23 02:49:42;;;;;;;15.60;8.75;;;19.60;90.50;;;;;;5094575;28;20028;-87
2022/07/23 02:52:10;;;;;;;15.40;8.57;;;19.70;90.40;;;;;;5077026;28;20020;-87
2022/07/23 02:54:37;;;;;;;14.50;8.82;;;19.80;90.30;;;;;;5076250;28;20084;-87
2022/07/23 02:57:03;;;;;;;19.23;8.50;;;19.90;90.30;;;;;;5098039;28;20038;-88
2022/07/23 02:59:29;;;;;;;16.50;8.63;;;20.00;90.10;;;;;;5099136;28;20071;-88
2022/07/23 03:01:55;;;;;;;14.00;8.52;;;20.10;90.00;;;;;;5097220;28;20016;-87
2022/07/23 03:04:21;;;;;;;17.83;8.88;;;20.20;89.60;;;;;;5086567;28;20032;-88
2022/07/23 03:06:47;;;;;;;16.05;8.68;;;20.30;89.20;;;;;;5093689;28;20051;-86
2022/07/23 03:09:12;;;;;;;16.48;8.82;;;20.40;88.70;;;;;;5084298;28;20024;-85
2022/07/23 03:11:38;;;;;;;16.00;8.55;;;20.40;88.40;;;;;;5077098;28;20052;-85
2022/07/23 03:14:05;;;;;;;13.15;8.07;;;20.50;88.30;;;;;;5095965;28;20046;-85
2022/07/23 03:16:31;;;;;;;21.33;9.73;;;20.50;88.10;;;;;;5095926;28;20115;-86
2022/07/23 03:18:57;;;;;;;11.35;7.57;;;20.50;87.90;;;;;;5094834;28;20138;-85
2022/07/23 03:21:23;;;;;;;15.80;8.65;;;20.50;87.90;;;;;;5096341;28;20020;-84
2022/07/23 03:23:49;;;;;;;17.35;7.53;;;20.40;88.30;;;;;;5095589;28;20024;-85
2022/07/23 03:26:14;;;;;;;17.30;8.15;;;20.50;88.40;;;;;;5097099;28;20034;-87
2022/07/23 03:28:40;;;;;;;12.93;8.82;;;20.50;88.50;;;;;;5093431;28;20024;-87
2022/07/23 03:31:06;;;;;;;18.42;9.20;;;20.60;88.20;;;;;;5094119;28;20450;-85
2022/07/23 03:33:32;;;;;;;13.13;8.45;;;20.70;88.00;;;;;;5092178;28;20062;-85
2022/07/23 03:35:58;;;;;;;15.68;8.30;;;20.80;87.40;;;;;;5101097;28;20149;-86
2022/07/23 03:38:24;;;;;;;14.13;8.07;;;20.80;87.20;;;;;;5097595;28;20507;-85
2022/07/23 03:40:49;;;;;;;12.10;7.97;;;21.00;87.00;;;;;;5090511;28;20532;-85
2022/07/23 03:43:15;;;;;;;19.35;9.10;;;21.20;86.30;;;;;;5093167;28;20016;-86
2022/07/23 03:45:41;;;;;;;16.45;8.45;;;21.30;85.50;;;;;;5092549;28;20035;-85
2022/07/23 03:48:07;;;;;;;14.80;8.82;;;21.40;85.20;;;;;;5079092;28;20123;-88
2022/07/23 03:50:34;;;;;;;15.15;9.25;;;21.50;85.10;;;;;;5095821;28;20046;-88
2022/07/23 03:53:00;;;;;;;15.13;8.63;;;21.50;84.90;;;;;;5093430;28;20022;-88
2022/07/23 03:55:26;;;;;;;16.63;8.20;;;21.50;85.00;;;;;;5093347;28;20099;-86
2022/07/23 03:57:52;;;;;;;11.38;8.55;;;21.50;84.80;;;;;;5093336;28;20039;-87
2022/07/23 04:00:17;;;;;;;14.32;9.65;;;21.60;84.50;;;;;;5093311;28;20017;-87
2022/07/23 04:02:43;;;;;;;18.40;8.85;;;21.60;84.40;;;;;;5093282;28;20051;-86
2022/07/23 04:05:09;;;;;;;13.13;8.77;;;21.70;84.30;;;;;;5091301;28;20110;-87
2022/07/23 04:07:35;;;;;;;13.10;8.27;;;21.70;84.00;;;;;;5092952;28;20504;-87
2022/07/23 04:10:01;;;;;;;15.45;9.00;;;21.80;83.80;;;;;;5060490;28;20024;-86
2022/07/23 04:12:26;;;;;;;11.55;8.40;;;21.90;83.60;;;;;;5093214;28;20093;-86
2022/07/23 04:14:52;;;;;;;11.85;9.18;;;22.00;83.40;;;;;;5093476;28;20366;-86
2022/07/23 04:17:18;;;;;;;12.32;9.23;;;22.00;83.10;;;;;;5062052;28;20016;-87
2022/07/23 04:19:44;;;;;;;16.75;8.95;;;22.00;82.80;;;;;;5093090;28;20032;-86
2022/07/23 04:22:11;;;;;;;13.50;9.20;;;22.10;82.50;;;;;;5093641;28;20582;-86
2022/07/23 04:24:37;;;;;;;18.33;9.60;;;22.10;82.90;;;;;;5077953;28;20059;-86
2022/07/23 04:27:04;;;;;;;15.45;9.23;;;22.20;82.40;;;;;;5095983;28;20036;-87
2022/07/23 04:29:29;;;;;;;14.83;9.03;;;22.30;81.80;;;;;;5093636;28;20020;-85
2022/07/23 04:31:55;;;;;;;17.58;9.25;;;22.40;81.60;;;;;;5093065;28;20024;-88
2022/07/23 04:34:21;;;;;;;15.02;9.55;;;22.50;81.30;;;;;;5092609;28;20020;-87
2022/07/23 04:36:47;;;;;;;10.65;8.75;;;22.50;80.70;;;;;;5091075;28;20039;-86
2022/07/23 04:39:13;;;;;;;14.02;8.70;;;22.60;80.50;;;;;;5092227;28;20032;-87
2022/07/23 04:41:39;;;;;;;14.70;10.15;;;22.70;80.30;;;;;;5093114;28;20165;-89
2022/07/23 04:44:05;;;;;;;15.30;8.80;;;22.70;79.80;;;;;;5075177;28;20118;-88
2022/07/23 04:46:31;;;;;;;13.52;9.27;;;22.80;79.60;;;;;;5074224;28;20016;-89
2022/07/23 04:48:57;;;;;;;12.32;9.02;;;22.90;79.00;;;;;;5092363;28;20035;-87
2022/07/23 04:51:24;;;;;;;14.93;8.38;;;22.90;78.60;;;;;;5091495;28;20028;-88
2022/07/23 04:53:50;;;;;;;14.38;9.85;;;23.00;78.20;;;;;;5092526;28;20070;-88
2022/07/23 04:56:16;;;;;;;10.60;8.60;;;23.10;78.00;;;;;;5092268;28;20457;-88
2022/07/23 04:58:42;;;;;;;12.25;7.68;;;23.10;77.40;;;;;;5092350;28;20024;-86
2022/07/23 05:01:08;;;;;;;10.35;7.90;;;23.20;76.50;;;;;;5091793;28;20024;-86
2022/07/23 05:03:34;;;;;;;9.50;7.50;;;23.20;76.50;;;;;;5092165;28;20051;-85
2022/07/23 05:06:00;;;;;;;11.85;7.13;;;23.40;76.20;;;;;;5090906;28;20429;-85
2022/07/23 05:08:26;;;;;;;12.55;7.00;;;23.70;75.40;;;;;;5093508;28;20023;-88
2022/07/23 05:10:52;;;;;;;7.75;6.88;;;24.40;74.50;;;;;;5092546;28;20110;-84
2022/07/23 05:13:18;;;;;;;8.90;7.07;;;25.40;70.70;;;;;;5099181;28;20043;-85
2022/07/23 05:15:45;;;;;;;12.33;7.57;;;;;;;;;;5107268;28;20024;-84
2022/07/23 05:18:11;;;;;;;10.50;6.60;;;26.40;68.00;;;;;;5106006;28;20032;-85
2022/07/23 05:20:37;;;;;;;7.30;6.25;;;28.30;61.30;;;;;;5097940;28;20345;-85
2022/07/23 05:23:03;;;;;;;15.48;7.63;;;29.10;59.30;;;;;;5093638;28;20024;-86
2022/07/23 05:25:29;;;;;;;13.23;6.95;;;30.00;56.90;;;;;;5072680;28;20040;-86
2022/07/23 05:27:55;;;;;;;8.63;6.25;;;30.90;55.00;;;;;;5091965;28;20107;-86
2022/07/23 05:30:21;;;;;;;10.40;7.50;;;31.50;52.90;;;;;;5092326;28;20560;-87
2022/07/23 05:32:47;;;;;;;7.97;5.87;;;31.90;51.70;;;;;;5091154;28;20032;-87
2022/07/23 05:35:13;;;;;;;8.70;6.43;;;32.50;50.40;;;;;;5089481;28;20165;-86
2022/07/23 05:37:38;;;;;;;9.77;5.60;;;33.10;49.70;;;;;;5100624;28;20028;-84
2022/07/23 05:40:07;;;;;;;8.77;5.77;;;33.60;48.40;;;;;;5078303;28;20032;-87
2022/07/23 05:42:41;;;;;;;8.57;6.88;;;34.10;46.90;;;;;;5094445;28;20020;-86
2022/07/23 05:45:08;;;;;;;7.22;5.40;;;34.10;46.80;;;;;;5095043;28;20126;-87
2022/07/23 05:47:47;;;;;;;6.97;5.57;;;34.50;46.10;;;;;;5095674;28;20024;-86
2022/07/23 05:50:14;;;;;;;8.05;6.07;;;34.90;45.20;;;;;;5082871;28;20047;-85
2022/07/23 05:52:41;;;;;;;10.65;6.05;;;35.20;44.30;;;;;;5096230;28;20073;-86
2022/07/23 05:55:08;;;;;;;6.93;6.22;;;35.30;43.40;;;;;;5095728;28;20495;-87
2022/07/23 05:57:35;;;;;;;8.90;5.88;;;35.20;43.10;;;;;;5077023;28;20028;-85
2022/07/23 06:00:01;;;;;;;6.60;5.88;;;34.90;43.60;;;;;;5094651;28;20024;-86
2022/07/23 06:02:27;;;;;;;7.20;5.72;;;34.90;43.30;;;;;;5096445;28;20024;-84
2022/07/23 06:04:53;;;;;;;6.27;5.67;;;35.00;43.70;;;;;;5096640;28;20093;-86
2022/07/23 06:07:19;;;;;;;9.40;6.23;;;35.50;42.60;;;;;;5097427;28;20016;-85
2022/07/23 06:09:46;;;;;;;7.27;4.83;;;36.30;42.10;;;;;;5096353;28;20032;-86
2022/07/23 06:12:12;;;;;;;6.90;4.88;;;37.30;41.30;;;;;;5077919;28;20488;-86
2022/07/23 06:14:38;;;;;;;5.80;5.20;;;38.40;40.10;;;;;;5102122;28;20044;-85
2022/07/23 06:17:04;;;;;;;9.90;5.90;;;39.40;38.50;;;;;;5110813;28;20008;-84
2022/07/23 06:19:30;;;;;;;7.35;5.60;;;39.40;38.20;;;;;;5088410;28;20024;-84
2022/07/23 06:21:55;;;;;;;7.47;6.03;;;40.00;37.70;;;;;;5114339;28;20024;-85
2022/07/23 06:24:22;;;;;;;9.63;5.17;;;;;;;;;;5094265;28;20043;-86
2022/07/23 06:26:48;;;;;;;7.25;5.55;;;;;;;;;;5080824;28;20252;-86
2022/07/23 06:29:13;;;;;;;5.97;5.18;;;41.50;37.50;;;;;;5098237;28;20437;-85
2022/07/23 06:31:39;;;;;;;6.70;5.43;;;41.90;36.70;;;;;;5077775;28;20159;-86
2022/07/23 06:34:05;;;;;;;5.57;5.07;;;42.10;36.10;;;;;;5094248;28;20107;-87
2022/07/23 06:36:31;;;;;;;6.22;5.45;;;42.20;34.90;;;;;;5095728;28;20490;-85
2022/07/23 06:38:57;;;;;;;8.85;5.57;;;42.50;34.70;;;;;;5094364;28;20020;-84
2022/07/23 06:41:23;;;;;;;7.35;5.22;;;42.00;34.70;;;;;;5076296;28;20028;-86
2022/07/23 06:43:49;;;;;;;7.18;5.22;;;42.20;35.30;;;;;;5094263;28;20036;-84
2022/07/23 06:46:15;;;;;;;10.05;6.40;;;42.10;35.40;;;;;;5102618;28;20050;-83
2022/07/23 06:48:41;;;;;;;5.78;5.13;;;43.10;34.40;;;;;;5078269;28;20025;-83
2022/07/23 06:51:07;;;;;;;;;;;43.30;33.50;;;;;;5088255;28;20124;-84
2022/07/23 06:53:32;;;;;;;5.07;4.47;;;42.70;34.90;;;;;;5076033;28;19908;-83
2022/07/23 06:55:58;;;;;;;;;;;42.90;34.00;;;;;;5071167;28;20016;-84
2022/07/23 06:58:24;;;;;;;6.50;5.88;;;43.30;34.80;;;;;;5078339;28;19966;-84
2022/07/23 07:00:51;;;;;;;;;;;43.30;33.30;;;;;;5077953;28;20021;-84
2022/07/23 07:03:18;;;;;;;7.30;5.07;;;43.60;35.50;;;;;;5088300;28;19912;-83
2022/07/23 07:05:43;;;;;;;7.38;5.47;;;44.30;33.00;;;;;;5083667;28;20033;-86
2022/07/23 07:08:09;;;;;;;;;;;44.40;32.40;;;;;;5088438;28;20024;-84
2022/07/23 07:10:35;;;;;;;12.07;4.88;;;44.40;33.10;;;;;;5058943;28;20349;-84
2022/07/23 07:13:01;;;;;;;;;;;;;;;;;;5059814;28;20055;-85
2022/07/23 07:15:27;;;;;;;8.95;5.90;;;;;;;;;;5068344;28;19994;-83
2022/07/23 07:17:53;;;;;;;6.93;5.68;;;;;;;;;;5069710;28;20025;-84
2022/07/23 07:20:20;;;;;;;9.10;5.95;;;;;;;;;;5069026;28;20012;-83
2022/07/23 07:22:45;;;;;;;12.18;10.18;;;42.50;32.20;;;;;;5081344;28;20543;-82
2022/07/23 07:25:11;;;;;;;10.20;5.75;;;42.30;32.70;;;;;;5085209;28;20036;-84
2022/07/23 07:27:37;;;;;;;9.15;6.07;;;42.00;33.70;;;;;;5073763;28;20028;-83
2022/07/23 07:30:04;;;;;;;;;;;42.40;33.60;;;;;;5067014;28;20051;-85
2022/07/23 07:32:32;;;;;;;5.65;5.10;;;43.10;34.10;;;;;;5072655;28;19905;-86
2022/07/23 07:34:58;;;;;;;9.23;5.25;;;43.00;32.80;;;;;;5069206;28;20035;-86
2022/07/23 07:37:24;;;;;;;10.13;6.35;;;42.70;32.70;;;;;;5057334;28;20367;-80
2022/07/23 07:39:49;;;;;;;;;;;42.30;33.10;;;;;;5072960;28;20039;-82
2022/07/23 07:42:15;;;;;;;6.43;5.57;;;42.70;34.00;;;;;;5071869;28;19904;-83
2022/07/23 07:44:41;;;;;;;;;;;43.60;32.60;;;;;;5072168;28;20032;-83
2022/07/23 07:47:07;;;;;;;11.88;6.13;;;44.00;33.20;;;;;;5072033;28;19944;-81
2022/07/23 07:49:33;;;;;;;6.82;6.00;;;;;;;;;;5085432;28;20055;-84
2022/07/23 07:51:59;;;;;;;7.07;6.38;;;43.30;32.10;;;;;;5070082;28;20031;-83
2022/07/23 07:54:25;;;;;;;10.10;6.20;;;39.50;34.20;;;;;;5077016;28;20024;-83
2022/07/23 07:56:51;;;;;;;7.50;6.25;;;38.50;35.80;;;;;;5083858;28;20066;-84
2022/07/23 07:59:16;;;;;;;8.52;6.90;;;38.00;36.50;;;;;;5092331;28;20534;-83
2022/07/23 08:01:42;;;;;;;7.43;6.72;;;38.40;37.00;;;;;;5081010;28;20028;-83
2022/07/23 08:04:08;;;;;;;7.47;6.30;;;38.50;36.50;;;;;;5082423;28;20035;-83
2022/07/23 08:06:34;;;;;;;6.87;6.17;;;37.80;36.20;;;;;;5081038;28;20748;-83
2022/07/23 08:08:59;;;;;;;7.30;6.60;;;36.00;38.20;;;;;;5066445;28;20020;-82
2022/07/23 08:11:25;;;;;;;7.53;6.83;;;34.60;39.90;;;;;;5080074;28;20102;-83
2022/07/23 08:13:51;;;;;;;9.70;7.03;;;33.50;41.40;;;;;;5083429;28;20031;-84
2022/07/23 08:16:17;;;;;;;10.90;7.87;;;32.60;42.50;;;;;;5088380;28;20490;-83
2022/07/23 08:18:42;;;;;;;8.67;7.27;;;31.80;43.60;;;;;;5064358;28;20445;-83
2022/07/23 08:21:08;;;;;;;7.60;6.90;;;31.50;44.50;;;;;;5085131;28;20024;-84
2022/07/23 08:23:34;;;;;;;7.97;7.22;;;31.10;44.80;;;;;;5083552;28;20020;-83
2022/07/23 08:26:00;;;;;;;8.10;7.33;;;32.30;44.60;;;;;;5083929;28;20029;-84
2022/07/23 08:28:26;;;;;;;7.78;6.97;;;35.20;42.10;;;;;;5087303;28;20012;-83
2022/07/23 08:30:53;;;;;;;6.75;6.15;;;;;;;;;;5090567;28;20032;-83
2022/07/23 08:33:19;;;;;;;9.85;6.75;;;38.20;38.30;;;;;;5090394;28;20483;-83
2022/07/23 08:35:47;;;;;;;8.38;6.63;;;40.40;34.70;;;;;;5089939;28;20477;-82
2022/07/23 08:38:15;;;;;;;7.88;6.70;;;39.90;35.30;;;;;;5088421;28;20796;-85
2022/07/23 08:40:47;;;;;;;8.02;6.55;;;40.10;35.10;;;;;;5087158;28;20032;-84
2022/07/23 08:43:15;;;;;;;8.93;6.38;;;40.40;34.30;;;;;;5085817;28;20418;-84
2022/07/23 08:45:46;;;;;;;10.68;6.85;;;41.30;34.10;;;;;;5075989;28;20190;-83
2022/07/23 08:48:17;;;;;;;7.32;5.45;;;42.70;33.70;;;;;;5074995;28;20099;-83
2022/07/23 08:50:49;;;;;;;8.07;5.57;;;44.30;32.10;;;;;;5074455;28;20025;-82
2022/07/23 08:53:17;;;;;;;8.07;6.82;;;44.90;31.40;;;;;;5074949;28;20016;-80
2022/07/23 08:55:51;;;;;;;6.57;5.97;;;45.00;30.70;;;;;;5075721;28;20013;-82
2022/07/23 08:58:18;;;;;;;7.25;6.50;;;45.10;30.70;;;;;;5072873;28;20026;-82
2022/07/23 09:00:44;;;;;;;6.65;6.03;;;44.50;30.50;;;;;;5084757;28;20067;-82
2022/07/23 09:03:21;;;;;;;7.25;6.05;;;43.50;31.00;;;;;;5081546;28;20016;-83
2022/07/23 09:05:49;;;;;;;6.80;5.97;;;43.60;31.60;;;;;;5081780;28;20060;-82
2022/07/23 09:08:21;;;;;;;8.95;6.72;;;;;;;;;;5091970;28;20012;-82
2022/07/23 09:10:55;;;;;;;6.65;5.90;;;45.20;29.60;;;;;;5083618;28;20029;-81
2022/07/23 09:13:27;;;;;;;7.55;6.22;;;43.90;30.20;;;;;;5094845;28;20113;-82
2022/07/23 09:15:55;;;;;;;7.70;7.00;;;41.50;31.80;;;;;;5095200;28;20031;-81
2022/07/23 09:18:33;;;;;;;8.63;7.82;;;38.90;34.10;;;;;;5095682;28;20028;-80
2022/07/23 09:21:34;;;;;;;8.55;7.25;;;36.70;36.50;;;;;;5094260;28;20134;-82
2022/07/23 09:24:01;;;;;;;13.18;8.65;;;36.70;37.80;;;;;;5094728;28;20032;-81
2022/07/23 09:26:35;;;;;;;9.55;7.43;;;38.20;36.70;;;;;;5094742;28;20022;-81
2022/07/23 09:29:20;;;;;;;7.97;7.28;;;39.90;35.10;;;;;;5075944;28;20039;-84
2022/07/23 09:31:46;;;;;;;7.35;6.68;;;40.80;33.80;;;;;;5093002;28;20115;-84
2022/07/23 09:34:19;;;;;;;9.40;7.30;;;40.30;33.60;;;;;;5075929;28;20115;-84
2022/07/23 09:36:46;;;;;;;7.88;7.18;;;39.10;34.80;;;;;;5092060;28;20055;-83
2022/07/23 09:39:15;;;;;;;8.10;7.30;;;38.60;35.70;;;;;;5091674;28;20367;-81
2022/07/23 09:41:46;;;;;;;8.85;7.30;;;38.20;36.30;;;;;;5078043;28;20031;-85
2022/07/23 09:44:18;;;;;;;7.85;7.10;;;38.70;35.60;;;;;;5098317;28;20036;-84
2022/07/23 09:46:47;;;;;;;9.20;6.50;;;39.20;35.40;;;;;;5094214;28;20389;-86
2022/07/23 09:49:22;;;;;;;8.25;7.05;;;40.20;34.50;;;;;;5095546;28;20031;-85
2022/07/23 09:51:49;;;;;;;8.57;7.77;;;41.10;33.50;;;;;;5076887;28;20094;-84
2022/07/23 09:54:36;;;;;;;7.45;6.75;;;41.60;32.70;;;;;;5091231;28;20158;-83
2022/07/23 09:57:16;;;;;;;7.55;6.32;;;42.20;32.40;;;;;;5085830;28;20031;-84
2022/07/23 09:59:46;;;;;;;6.90;6.22;;;43.40;31.60;;;;;;5086399;28;20012;-88
2022/07/23 10:02:12;;;;;;;7.35;6.25;;;44.10;30.80;;;;;;5108389;28;20020;-87
2022/07/23 10:04:39;;;;;;;6.95;6.25;;;44.90;30.20;;;;;;5097406;28;20035;-87
2022/07/23 10:07:08;;;;;;;8.75;6.43;;;45.00;30.20;;;;;;5095830;28;20016;-86
2022/07/23 10:09:39;;;;;;;6.35;5.72;;;45.40;29.90;;;;;;5094950;28;20400;-87
2022/07/23 10:14:51;;;;;;;7.40;5.95;;;44.60;30.20;;;;;;5094729;28;20067;-86
2022/07/23 10:17:18;;;;;;;8.38;7.28;;;42.90;30.80;;;;;;5087422;28;20171;-88
2022/07/23 10:19:44;;;;;;;8.02;6.60;;;40.20;32.60;;;;;;5096793;28;20028;-88
2022/07/23 10:22:10;;;;;;;8.93;7.50;;;;;;;;;;5095076;28;20012;-89
2022/07/23 10:25:00;;;;;;;9.93;8.68;;;37.70;35.00;;;;;;5095987;28;20047;-90
2022/07/23 10:27:45;;;;;;;8.90;8.10;;;34.60;39.10;;;;;;5077831;28;20031;-87
2022/07/23 10:30:13;;;;;;;9.50;8.18;;;;;;;;;;5088831;28;20404;-90
2022/07/23 10:33:13;;;;;;;10.90;8.40;;;32.50;41.70;;;;;;5071877;28;20028;-87
2022/07/23 10:35:45;;;;;;;12.38;8.68;;;31.60;41.70;;;;;;5076206;28;20021;-85
2022/07/23 10:38:18;;;;;;;9.63;8.63;;;31.50;43.80;;;;;;5091687;28;20020;-85
2022/07/23 10:41:02;;;;;;;12.38;7.85;;;31.30;45.30;;;;;;5094018;28;20542;-86
2022/07/23 10:43:29;;;;;;;11.23;8.82;;;31.20;44.60;;;;;;5093989;28;20476;-86
2022/07/23 10:45:56;;;;;;;13.52;8.75;;;31.00;45.50;;;;;;5094553;28;20098;-86
2022/07/23 10:48:29;;;;;;;9.77;8.27;;;30.80;45.40;;;;;;5093945;28;20112;-85
2022/07/23 10:51:15;;;;;;;10.50;8.55;;;30.70;45.80;;;;;;5094289;28;20094;-86
2022/07/23 10:53:58;;;;;;;10.80;8.43;;;;;;;;;;5094254;28;20023;-85
2022/07/23 10:56:44;;;;;;;9.80;8.80;;;;;;;;;;5075761;28;20163;-78
2022/07/23 10:59:10;;;;;;;11.45;8.82;;;;;;;;;;5080033;28;20032;-80
2022/07/23 11:01:37;;;;;;;11.05;8.35;;;;;;;;;;5093358;28;20083;-85
2022/07/23 11:04:06;;;;;;;9.90;8.35;;;;;;;;;;5066084;28;20492;-91
2022/07/23 11:06:50;;;;;;;10.23;8.68;;;;;;;;;;5077335;28;20496;-84
2022/07/23 11:09:28;;;;;;;11.80;9.30;;;30.60;45.60;;;;;;5082544;28;20024;-91
2022/07/23 11:12:12;;;;;;;9.88;8.88;;;30.30;46.70;;;;;;5093586;28;20048;-90
2022/07/23 11:14:57;;;;;;;17.40;12.50;;;30.20;46.70;;;;;;5093514;28;20024;-85
2022/07/23 11:17:24;;;;;;;15.05;8.73;;;30.30;47.30;;;;;;5067038;28;20028;-84
2022/07/23 11:20:09;;;;;;;10.18;8.80;;;30.30;46.80;;;;;;5081203;28;20016;-81
2022/07/23 11:22:44;;;;;;;10.50;9.07;;;30.30;46.70;;;;;;5075521;28;20365;-81
2022/07/23 11:25:29;;;;;;;11.18;8.60;;;30.30;46.90;;;;;;5079458;28;20131;-82
2022/07/23 11:28:07;;;;;;;10.18;8.95;;;30.40;47.50;;;;;;5083332;28;20016;-85
2022/07/23 11:30:33;;;;;;;10.68;9.10;;;30.50;46.50;;;;;;5094095;28;20024;-82
2022/07/23 11:33:08;;;;;;;8.73;7.85;;;30.40;46.50;;;;;;5093999;28;20016;-81
2022/07/23 11:35:39;;;;;;;11.77;8.48;;;30.20;46.40;;;;;;5091824;28;20150;-85
2022/07/23 11:38:22;;;;;;;9.52;8.63;;;30.10;47.00;;;;;;5078556;28;20020;-85
2022/07/23 11:40:51;;;;;;;10.45;9.02;;;29.90;46.70;;;;;;5081421;28;20027;-85
2022/07/23 11:43:18;;;;;;;9.43;8.48;;;30.00;46.90;;;;;;5078642;28;20084;-85
2022/07/23 11:45:50;;;;;;;9.30;8.00;;;30.20;46.90;;;;;;5081985;28;20079;-83
2022/07/23 11:48:25;;;;;;;9.05;8.15;;;30.30;47.00;;;;;;5102169;28;20019;-85
2022/07/23 11:50:53;;;;;;;9.80;8.40;;;30.60;46.40;;;;;;5068779;28;20395;-82
2022/07/23 11:53:33;;;;;;;11.35;8.55;;;30.60;46.10;;;;;;5073499;28;20012;-82
2022/07/23 11:56:10;;;;;;;13.15;8.75;;;30.50;46.30;;;;;;5080160;28;20147;-85
2022/07/23 11:58:37;;;;;;;13.10;8.40;;;30.40;46.20;;;;;;5089589;28;20028;-85
2022/07/23 12:01:04;;;;;;;;;;;30.30;46.60;;;;;;5095382;28;20081;-86
2022/07/23 12:03:29;;;;;;;10.93;8.57;;;30.20;47.00;;;;;;5089605;28;19904;-85
2022/07/23 12:05:59;;;;;;;10.48;8.10;;;;;;;;;;5097809;28;20111;-85
2022/07/23 12:08:25;;;;;;;9.90;8.90;;;30.10;46.70;;;;;;5086910;28;20118;-84
2022/07/23 12:10:51;;;;;;;10.77;8.82;;;29.70;46.90;;;;;;5093976;28;20017;-81
2022/07/23 12:13:20;;;;;;;9.52;8.60;;;29.60;47.30;;;;;;5088784;28;20083;-80
2022/07/23 12:16:04;;;;;;;11.30;8.52;;;29.40;46.70;;;;;;5090299;28;20016;-83
2022/07/23 12:18:31;;;;;;;11.73;10.23;;;29.40;47.70;;;;;;5080977;28;20023;-84
2022/07/23 12:21:02;;;;;;;10.10;8.70;;;29.30;47.60;;;;;;5080818;28;20027;-81
2022/07/23 12:23:28;;;;;;;10.38;8.68;;;29.30;48.00;;;;;;5096445;28;20464;-82
2022/07/23 12:25:55;;;;;;;9.52;8.57;;;29.20;48.00;;;;;;5090734;28;20090;-81
2022/07/23 12:28:27;;;;;;;11.95;9.15;;;29.30;48.20;;;;;;5090043;28;20053;-81
2022/07/23 12:30:54;;;;;;;10.52;8.90;;;29.30;48.00;;;;;;5091987;28;20142;-80
2022/07/23 12:33:25;;;;;;;9.50;8.48;;;29.30;47.70;;;;;;5090717;28;20020;-81
2022/07/23 12:35:57;;;;;;;9.52;8.52;;;29.30;48.00;;;;;;5078912;28;20032;-81
2022/07/23 12:38:25;;;;;;;12.05;8.57;;;29.30;47.90;;;;;;5078197;28;20396;-82
2022/07/23 12:40:56;;;;;;;10.70;9.18;;;29.30;48.00;;;;;;5091722;28;20381;-82
2022/07/23 12:43:22;;;;;;;10.43;9.23;;;29.30;47.80;;;;;;5053664;28;20550;-86
2022/07/23 12:45:51;;;;;;;9.50;8.55;;;29.40;47.60;;;;;;5083462;28;20123;-84
2022/07/23 12:48:21;;;;;;;8.82;7.90;;;29.30;47.50;;;;;;5087951;28;20435;-83
2022/07/23 12:50:58;;;;;;;12.90;9.20;;;29.40;47.80;;;;;;5083080;28;20043;-84
2022/07/23 12:53:39;;;;;;;11.25;9.10;;;29.40;47.80;;;;;;5088089;28;20038;-83
2022/07/23 12:56:11;;;;;;;10.57;8.98;;;29.40;47.60;;;;;;5086986;28;20029;-84
2022/07/23 12:58:51;;;;;;;13.80;10.30;;;29.40;47.80;;;;;;5074490;28;20017;-84